createdAt,value
2023-01-13T00:00:25.029Z,99217.50
2023-01-13T00:03:12.501Z,99218.34
2023-01-13T00:09:05.524Z,99217.31
2023-01-13T00:11:32.933Z,99210.19
2023-01-13T00:14:03.285Z,99206.53
2023-01-13T00:16:31.003Z,99213.88
2023-01-13T00:18:58.128Z,99208.56
2023-01-13T00:21:25.629Z,99208.56
2023-01-13T00:23:55.130Z,99201.59
2023-01-13T00:26:30.708Z,99202.44
2023-01-13T00:28:59.984Z,99194.66
2023-01-13T00:31:29.693Z,99204.88
2023-01-13T00:33:58.914Z,99200.78
2023-01-13T00:36:26.920Z,99202.44
2023-01-13T00:38:53.988Z,99199.19
2023-01-13T00:41:23.684Z,99198.78
2023-01-13T00:43:51.048Z,99200.22
2023-01-13T00:46:21.567Z,99197.16
2023-01-13T00:48:49.697Z,99201.66
2023-01-13T00:51:20.652Z,99196.38
2023-01-13T00:53:51.693Z,99191.06
2023-01-13T00:56:38.419Z,99189.41
2023-01-13T00:59:10.553Z,99195.50
2023-01-13T01:01:38.407Z,99186.91
2023-01-13T01:04:06.522Z,99192.22
2023-01-13T01:06:34.195Z,99195.50
2023-01-13T01:09:01.275Z,99194.88
2023-01-13T01:11:32.509Z,99190.59
2023-01-13T01:14:03.624Z,99191.00
2023-01-13T01:16:33.160Z,99185.06
2023-01-13T01:19:01.632Z,99186.06
2023-01-13T01:21:29.789Z,99178.34
2023-01-13T01:24:01.160Z,99181.16
2023-01-13T01:26:31.230Z,99175.06
2023-01-13T01:28:58.911Z,99170.56
2023-01-13T01:31:31.446Z,99176.50
2023-01-13T01:34:00.569Z,99166.50
2023-01-13T01:36:30.303Z,99168.34
2023-01-13T01:38:59.951Z,99166.50
2023-01-13T01:41:32.849Z,99156.09
2023-01-13T01:44:08.107Z,99170.16
2023-01-13T01:46:42.359Z,99167.50
2023-01-13T01:49:41.960Z,99157.94
2023-01-13T01:52:14.948Z,99154.25
2023-01-13T01:54:52.778Z,99151.59
2023-01-13T01:57:29.248Z,99145.28
2023-01-13T01:59:58.457Z,99145.28
2023-01-13T02:02:25.753Z,99142.81
2023-01-13T02:04:56.071Z,99134.69
2023-01-13T02:07:31.923Z,99131.41
2023-01-13T02:10:07.448Z,99131.41
2023-01-13T02:12:37.093Z,99139.16
2023-01-13T02:15:14.104Z,99138.34
2023-01-13T02:18:23.017Z,99128.78
2023-01-13T02:21:27.771Z,99126.28
2023-01-13T02:24:52.353Z,99125.47
2023-01-13T02:27:40.595Z,99116.88
2023-01-13T02:30:28.080Z,99107.31
2023-01-13T02:33:13.934Z,99113.41
2023-01-13T02:36:33.396Z,99116.06
2023-01-13T02:39:15.990Z,99104.66
2023-01-13T02:42:28.198Z,99113.00
2023-01-13T02:45:19.302Z,99106.03
2023-01-13T02:47:50.348Z,99112.16
2023-01-13T02:50:28.960Z,99105.03
2023-01-13T02:53:03.955Z,99104.84
2023-01-13T02:55:37.676Z,99103.22
2023-01-13T02:58:12.025Z,99107.31
2023-01-13T03:00:40.328Z,99098.69
2023-01-13T03:03:07.543Z,99093.00
2023-01-13T03:05:35.327Z,99092.00
2023-01-13T03:08:18.710Z,99091.00
2023-01-13T03:11:11.713Z,99093.25
2023-01-13T03:14:21.014Z,99092.66
2023-01-13T03:17:12.124Z,99077.16
2023-01-13T03:19:57.233Z,99078.38
2023-01-13T03:22:51.424Z,99082.47
2023-01-13T03:25:31.853Z,99073.91
2023-01-13T03:28:03.886Z,99075.56
2023-01-13T03:30:43.166Z,99071.91
2023-01-13T03:33:18.730Z,99064.56
2023-01-13T03:35:53.912Z,99067.81
2023-01-13T03:38:32.162Z,99067.81
2023-01-13T03:41:12.677Z,99056.81
2023-01-13T03:44:11.001Z,99054.75
2023-01-13T03:47:12.541Z,99057.63
2023-01-13T03:49:53.535Z,99051.91
2023-01-13T03:52:32.861Z,99053.97
2023-01-13T03:55:09.693Z,99058.03
2023-01-13T03:57:47.063Z,99056.00
2023-01-13T04:00:16.137Z,99054.78
2023-01-13T04:02:53.636Z,99061.50
2023-01-13T04:05:21.218Z,99061.72
2023-01-13T04:08:17.891Z,99062.09
2023-01-13T04:11:06.412Z,99055.78
2023-01-13T04:13:40.135Z,99057.44
2023-01-13T04:16:10.511Z,99058.88
2023-01-13T04:18:39.678Z,99054.75
2023-01-13T04:21:07.743Z,99054.38
2023-01-13T04:23:35.220Z,99053.94
2023-01-13T04:26:02.360Z,99056.59
2023-01-13T04:28:29.603Z,99050.25
2023-01-13T04:30:56.665Z,99051.47
2023-01-13T04:33:23.866Z,99049.47
2023-01-13T04:35:52.513Z,99049.00
2023-01-13T04:38:21.871Z,99049.63
2023-01-13T04:40:48.941Z,99053.91
2023-01-13T04:43:16.766Z,99046.56
2023-01-13T04:45:44.036Z,99043.72
2023-01-13T04:48:12.053Z,99055.13
2023-01-13T04:50:39.342Z,99056.78
2023-01-13T04:53:06.760Z,99056.38
2023-01-13T04:55:33.819Z,99052.06
2023-01-13T04:58:06.963Z,99054.31
2023-01-13T05:00:35.345Z,99050.66
2023-01-13T05:03:03.895Z,99052.47
2023-01-13T05:05:32.305Z,99051.44
2023-01-13T05:07:59.655Z,99051.00
2023-01-13T05:10:27.588Z,99059.63
2023-01-13T05:13:13.715Z,99057.97
2023-01-13T05:16:00.699Z,99059.19
2023-01-13T05:18:30.587Z,99065.72
2023-01-13T05:20:58.008Z,99063.69
2023-01-13T05:23:44.066Z,99063.69
2023-01-13T05:26:11.691Z,99065.31
2023-01-13T05:28:38.883Z,99071.88
2023-01-13T05:31:06.395Z,99063.69
2023-01-13T05:33:35.771Z,99070.63
2023-01-13T05:36:03.803Z,99063.25
2023-01-13T05:38:31.259Z,99059.56
2023-01-13T05:41:19.364Z,99063.88
2023-01-13T05:43:46.719Z,99062.81
2023-01-13T05:46:14.773Z,99060.81
2023-01-13T05:48:43.782Z,99057.09
2023-01-13T05:51:12.487Z,99055.03
2023-01-13T05:53:40.846Z,99055.47
2023-01-13T05:56:09.675Z,99062.22
2023-01-13T05:58:37.436Z,99064.66
2023-01-13T06:01:07.928Z,99066.31
2023-01-13T06:03:36.080Z,99067.91
2023-01-13T06:06:04.658Z,99066.31
2023-01-13T06:08:32.711Z,99065.66
2023-01-13T06:11:00.086Z,99068.97
2023-01-13T06:13:27.927Z,99073.47
2023-01-13T06:15:59.443Z,99073.47
2023-01-13T06:18:27.961Z,99077.53
2023-01-13T06:20:55.304Z,99073.84
2023-01-13T06:23:23.142Z,99075.47
2023-01-13T06:26:13.868Z,99075.47
2023-01-13T06:28:41.244Z,99082.84
2023-01-13T06:31:10.233Z,99090.19
2023-01-13T06:33:44.555Z,99091.44
2023-01-13T06:36:22.511Z,99093.06
2023-01-13T06:38:56.876Z,99085.09
2023-01-13T06:41:43.519Z,99079.16
2023-01-13T06:44:10.895Z,99073.66
2023-01-13T06:46:38.042Z,99076.31
2023-01-13T06:49:05.599Z,99075.06
2023-01-13T06:51:32.620Z,99076.69
2023-01-13T06:53:59.868Z,99075.69
2023-01-13T06:56:26.908Z,99072.59
2023-01-13T06:58:54.255Z,99081.19
2023-01-13T07:01:21.447Z,99077.91
2023-01-13T07:03:48.860Z,99075.44
2023-01-13T07:06:15.867Z,99077.91
2023-01-13T07:08:43.097Z,99079.53
2023-01-13T07:11:09.981Z,99090.56
2023-01-13T07:13:56.669Z,99081.19
2023-01-13T07:16:24.317Z,99081.78
2023-01-13T07:18:51.627Z,99081.78
2023-01-13T07:21:20.061Z,99078.09
2023-01-13T07:23:48.115Z,99085.63
2023-01-13T07:26:16.317Z,99084.63
2023-01-13T07:28:43.715Z,99080.97
2023-01-13T07:31:18.146Z,99074.19
2023-01-13T07:33:46.321Z,99087.66
2023-01-13T07:36:14.746Z,99080.28
2023-01-13T07:38:44.353Z,99085.19
2023-01-13T07:41:33.843Z,99081.47
2023-01-13T07:44:04.832Z,99076.16
2023-01-13T07:46:32.995Z,99079.22
2023-01-13T07:49:00.296Z,99076.97
2023-01-13T07:51:27.576Z,99080.25
2023-01-13T07:53:54.867Z,99082.91
2023-01-13T07:56:22.301Z,99085.13
2023-01-13T07:58:51.088Z,99084.69
2023-01-13T08:01:19.511Z,99079.19
2023-01-13T08:03:46.894Z,99075.66
2023-01-13T08:06:14.803Z,99077.66
2023-01-13T08:08:41.988Z,99073.78
2023-01-13T08:11:09.132Z,99071.75
2023-01-13T08:13:36.640Z,99071.88
2023-01-13T08:16:10.867Z,99066.97
2023-01-13T08:18:39.422Z,99064.91
2023-01-13T08:21:13.578Z,99066.72
2023-01-13T08:23:43.378Z,99068.97
2023-01-13T08:26:17.742Z,99067.50
2023-01-13T08:28:45.543Z,99070.50
2023-01-13T08:31:16.158Z,99069.06
2023-01-13T08:33:44.137Z,99062.72
2023-01-13T08:36:12.757Z,99064.72
2023-01-13T08:38:42.477Z,99062.41
2023-01-13T08:41:36.368Z,99065.88
2023-01-13T08:44:06.594Z,99061.72
2023-01-13T08:46:33.667Z,99057.59
2023-01-13T08:49:00.974Z,99062.06
2023-01-13T08:51:28.196Z,99059.56
2023-01-13T08:53:55.524Z,99070.16
2023-01-13T08:56:22.507Z,99064.41
2023-01-13T08:58:49.696Z,99066.16
2023-01-13T09:01:23.174Z,99062.41
2023-01-13T09:03:51.286Z,99058.88
2023-01-13T09:06:18.485Z,99056.97
2023-01-13T09:08:46.687Z,99055.63
2023-01-13T09:11:50.520Z,99053.25
2023-01-13T09:14:26.488Z,99065.88
2023-01-13T09:16:53.700Z,99058.81
2023-01-13T09:19:21.188Z,99046.09
2023-01-13T09:21:48.674Z,99050.75
2023-01-13T09:24:15.941Z,99037.41
2023-01-13T09:26:43.015Z,99030.81
2023-01-13T09:29:10.447Z,99029.16
2023-01-13T09:31:37.548Z,99032.44
2023-01-13T09:34:25.989Z,99040.22
2023-01-13T09:36:53.964Z,99031.31
2023-01-13T09:39:22.542Z,99030.72
2023-01-13T09:42:17.123Z,99033.91
2023-01-13T09:45:00.096Z,99032.16
2023-01-13T09:47:35.672Z,99038.72
2023-01-13T09:50:14.866Z,99035.13
2023-01-13T09:52:43.634Z,99034.81
2023-01-13T09:55:38.269Z,99036.69
2023-01-13T09:58:18.117Z,99034.78
2023-01-13T10:00:57.560Z,99031.16
2023-01-13T10:03:28.804Z,99027.41
2023-01-13T10:06:17.410Z,99024.03
2023-01-13T10:08:47.936Z,99017.78
2023-01-13T10:11:41.337Z,99012.00
2023-01-13T10:14:23.117Z,99019.66
2023-01-13T10:17:25.842Z,99020.00
2023-01-13T10:20:17.783Z,99024.09
2023-01-13T10:23:10.121Z,99011.31
2023-01-13T10:26:10.773Z,99003.41
2023-01-13T10:28:38.069Z,98999.22
2023-01-13T10:31:12.148Z,98992.97
2023-01-13T10:33:39.503Z,98997.84
2023-01-13T10:36:15.872Z,98985.75
2023-01-13T10:38:49.790Z,98981.09
2023-01-13T10:41:17.789Z,98985.53
2023-01-13T10:44:16.303Z,98975.00
2023-01-13T10:46:57.281Z,98975.47
2023-01-13T10:49:38.475Z,98967.31
2023-01-13T10:52:27.170Z,98967.66
2023-01-13T10:54:55.879Z,98961.34
2023-01-13T10:57:27.193Z,98956.81
2023-01-13T10:59:55.726Z,98960.06
2023-01-13T11:02:32.994Z,98954.72
2023-01-13T11:05:22.742Z,98953.13
2023-01-13T11:07:54.220Z,98957.19
2023-01-13T11:10:31.089Z,98956.34
2023-01-13T11:13:27.076Z,98948.91
2023-01-13T11:16:07.459Z,98943.09
2023-01-13T11:19:02.591Z,98943.09
2023-01-13T11:22:01.491Z,98937.75
2023-01-13T11:25:03.746Z,98933.53
2023-01-13T11:27:46.835Z,98926.56
2023-01-13T11:30:36.883Z,98932.81
2023-01-13T11:33:10.640Z,98924.31
2023-01-13T11:35:52.648Z,98926.25
2023-01-13T11:38:51.937Z,98926.25
2023-01-13T11:42:07.707Z,98920.44
2023-01-13T11:44:50.171Z,98912.97
2023-01-13T11:47:23.696Z,98914.59
2023-01-13T11:49:51.217Z,98926.91
2023-01-13T11:53:07.558Z,98918.19
2023-01-13T11:55:53.055Z,98907.81
2023-01-13T11:58:51.153Z,98914.31
2023-01-13T12:01:53.827Z,98915.94
2023-01-13T12:04:35.496Z,98907.66
2023-01-13T12:07:32.240Z,98908.59
2023-01-13T12:10:19.009Z,98901.06
2023-01-13T12:13:23.987Z,98896.75
2023-01-13T12:16:06.148Z,98907.91
2023-01-13T12:18:43.183Z,98902.78
2023-01-13T12:21:29.840Z,98913.25
2023-01-13T12:24:23.239Z,98916.75
2023-01-13T12:27:02.368Z,98901.50
2023-01-13T12:29:36.711Z,98912.22
2023-01-13T12:32:12.429Z,98910.56
2023-01-13T12:35:35.311Z,98912.22
2023-01-13T12:38:36.561Z,98909.91
2023-01-13T12:41:20.788Z,98898.66
2023-01-13T12:44:08.008Z,98895.97
2023-01-13T12:46:55.720Z,98893.78
2023-01-13T12:49:34.524Z,98887.03
2023-01-13T12:52:15.960Z,98894.50
2023-01-13T12:54:43.466Z,98902.78
2023-01-13T12:57:26.064Z,98904.84
2023-01-13T13:00:14.723Z,98900.00
2023-01-13T13:03:17.131Z,98904.19
2023-01-13T13:06:06.600Z,98894.78
2023-01-13T13:09:06.204Z,98895.03
2023-01-13T13:12:03.772Z,98899.25
2023-01-13T13:14:37.065Z,98901.91
2023-01-13T13:17:31.638Z,98904.59
2023-01-13T13:20:01.347Z,98907.28
2023-01-13T13:22:28.431Z,98908.31
2023-01-13T13:24:55.872Z,98914.69
2023-01-13T13:27:31.519Z,98918.44
2023-01-13T13:30:04.066Z,98911.47
2023-01-13T13:32:57.421Z,98913.56
2023-01-13T13:35:44.431Z,98913.81
2023-01-13T13:38:59.953Z,98909.97
2023-01-13T13:41:46.739Z,98910.44
2023-01-13T13:44:41.857Z,98918.72
2023-01-13T13:47:10.428Z,98922.78
2023-01-13T13:49:53.379Z,98923.59
2023-01-13T13:52:36.011Z,98928.38
2023-01-13T13:55:18.708Z,98930.38
2023-01-13T13:57:50.861Z,98930.59
2023-01-13T14:00:33.140Z,98928.75
2023-01-13T14:03:07.715Z,98934.56
2023-01-13T14:05:37.228Z,98937.47
2023-01-13T14:08:16.434Z,98939.56
2023-01-13T14:10:46.149Z,98939.22
2023-01-13T14:13:26.334Z,98941.31
2023-01-13T14:16:04.286Z,98939.13
2023-01-13T14:18:41.777Z,98933.19
2023-01-13T14:21:28.044Z,98940.19
2023-01-13T14:24:10.589Z,98936.44
2023-01-13T14:26:37.831Z,98937.97
2023-01-13T14:29:06.298Z,98936.59
2023-01-13T14:31:35.202Z,98940.53
2023-01-13T14:34:31.175Z,98946.47
2023-01-13T14:36:52.123Z,98946.09
2023-01-13T14:39:39.535Z,98951.44
2023-01-13T14:42:14.173Z,98959.34
2023-01-13T14:44:46.778Z,98956.81
2023-01-13T14:47:22.931Z,98954.59
2023-01-13T14:50:04.431Z,98953.69
2023-01-13T14:52:37.254Z,98957.38
2023-01-13T14:55:08.656Z,98953.00
2023-01-13T14:57:41.633Z,98960.44
2023-01-13T15:00:14.960Z,98960.44
2023-01-13T15:02:49.621Z,98960.91
2023-01-13T15:05:19.854Z,98957.66
2023-01-13T15:08:31.024Z,98956.47
2023-01-13T15:11:05.928Z,98956.97
2023-01-13T15:13:50.247Z,98966.25
2023-01-13T15:16:29.206Z,98967.28
2023-01-13T15:18:57.813Z,98963.78
2023-01-13T15:21:25.376Z,98963.56
2023-01-13T15:23:52.511Z,98964.38
2023-01-13T15:26:24.754Z,98969.72
2023-01-13T15:28:55.441Z,98976.00
2023-01-13T15:31:24.644Z,98983.44
2023-01-13T15:33:51.626Z,98986.69
2023-01-13T15:36:32.152Z,98982.63
2023-01-13T15:39:01.641Z,98978.56
2023-01-13T15:41:47.992Z,98974.03
2023-01-13T15:44:35.065Z,98971.81
2023-01-13T15:47:08.203Z,98977.84
2023-01-13T15:49:45.123Z,98972.97
2023-01-13T15:52:23.636Z,98975.06
2023-01-13T15:54:52.148Z,98979.56
2023-01-13T15:57:30.774Z,98986.19
2023-01-13T16:00:04.268Z,98990.00
2023-01-13T16:02:34.434Z,98980.97
2023-01-13T16:05:01.674Z,98981.41
2023-01-13T16:07:28.866Z,98984.91
2023-01-13T16:09:55.906Z,98995.59
2023-01-13T16:12:23.351Z,98989.66
2023-01-13T16:14:50.504Z,98989.28
2023-01-13T16:17:27.374Z,98988.91
2023-01-13T16:19:54.579Z,98992.06
2023-01-13T16:22:22.969Z,98999.00
2023-01-13T16:24:50.067Z,99004.59
2023-01-13T16:27:22.380Z,99000.06
2023-01-13T16:29:51.938Z,99013.28
2023-01-13T16:32:22.479Z,99008.16
2023-01-13T16:34:50.000Z,99011.41
2023-01-13T16:37:25.388Z,99018.63
2023-01-13T16:39:54.277Z,99020.22
2023-01-13T16:42:21.935Z,99025.56
2023-01-13T16:44:50.682Z,99027.22
2023-01-13T16:47:19.044Z,99021.88
2023-01-13T16:49:47.215Z,99023.97
2023-01-13T16:52:14.861Z,99018.81
2023-01-13T16:54:41.997Z,99025.22
2023-01-13T16:57:13.239Z,99019.50
2023-01-13T16:59:40.261Z,99016.25
2023-01-13T17:02:16.206Z,99023.69
2023-01-13T17:04:43.519Z,99025.78
2023-01-13T17:07:17.349Z,99019.97
2023-01-13T17:09:44.433Z,99028.59
2023-01-13T17:12:11.908Z,99027.97
2023-01-13T17:14:38.847Z,99034.38
2023-01-13T17:17:06.157Z,99033.78
2023-01-13T17:19:33.195Z,99028.66
2023-01-13T17:22:00.641Z,99029.09
2023-01-13T17:24:30.913Z,99035.69
2023-01-13T17:26:58.687Z,99021.78
2023-01-13T17:29:27.088Z,99023.88
2023-01-13T17:31:54.899Z,99029.19
2023-01-13T17:34:22.291Z,99021.34
2023-01-13T17:36:49.557Z,99028.31
2023-01-13T17:39:20.322Z,99028.31
2023-01-13T17:41:47.980Z,99022.16
2023-01-13T17:44:17.349Z,99025.03
2023-01-13T17:46:46.057Z,99029.19
2023-01-13T17:49:16.237Z,99029.19
2023-01-13T17:51:44.793Z,99028.16
2023-01-13T17:54:12.444Z,99031.88
2023-01-13T17:56:41.516Z,99028.38
2023-01-13T17:59:14.506Z,99033.72
2023-01-13T18:01:42.072Z,99034.53
2023-01-13T18:04:23.387Z,99018.53
2023-01-13T18:06:51.444Z,99027.34
2023-01-13T18:09:18.411Z,99030.22
2023-01-13T18:11:47.317Z,99024.16
2023-01-13T18:14:14.837Z,99029.97
2023-01-13T18:16:43.300Z,99030.41
2023-01-13T18:19:29.768Z,99035.19
2023-01-13T18:22:15.768Z,99029.22
2023-01-13T18:25:01.732Z,99038.88
2023-01-13T18:27:35.219Z,99037.47
2023-01-13T18:30:03.884Z,99033.97
2023-01-13T18:32:33.510Z,99033.97
2023-01-13T18:35:06.821Z,99036.88
2023-01-13T18:37:38.388Z,99032.56
2023-01-13T18:40:07.398Z,99037.69
2023-01-13T18:42:54.703Z,99042.44
2023-01-13T18:45:31.837Z,99046.72
2023-01-13T18:48:02.599Z,99047.31
2023-01-13T18:50:32.776Z,99045.69
2023-01-13T18:53:00.937Z,99048.38
2023-01-13T18:55:31.543Z,99049.16
2023-01-13T18:57:59.070Z,99043.03
2023-01-13T19:00:27.317Z,99048.38
2023-01-13T19:05:35.489Z,99057.03
2023-01-13T19:08:04.544Z,99060.75
2023-01-13T19:10:32.573Z,99068.75
2023-01-13T19:13:01.524Z,99075.94
2023-01-13T19:15:28.906Z,99070.59
2023-01-13T19:17:56.400Z,99075.34
2023-01-13T19:20:23.327Z,99081.69
2023-01-13T19:22:54.588Z,99080.09
2023-01-13T19:25:22.719Z,99094.44
2023-01-13T19:27:49.894Z,99094.44
2023-01-13T19:30:17.466Z,99105.56
2023-01-13T19:32:44.881Z,99106.03
2023-01-13T19:35:17.117Z,99122.16
2023-01-13T19:37:44.506Z,99123.84
2023-01-13T19:40:13.802Z,99126.72
2023-01-13T19:43:03.085Z,99149.31
2023-01-13T19:45:32.143Z,99145.22
2023-01-13T19:48:02.219Z,99154.25
2023-01-13T19:50:30.810Z,99157.38
2023-01-13T19:52:58.101Z,99167.25
2023-01-13T19:55:25.271Z,99157.25
2023-01-13T19:57:52.453Z,99164.88
2023-01-13T20:00:20.981Z,99163.25
2023-01-13T20:02:51.940Z,99178.63
2023-01-13T20:05:24.221Z,99181.72
2023-01-13T20:07:52.254Z,99179.50
2023-01-13T20:10:22.136Z,99183.63
2023-01-13T20:12:49.431Z,99184.06
2023-01-13T20:15:16.817Z,99182.88
2023-01-13T20:17:44.436Z,99183.88
2023-01-13T20:20:12.066Z,99196.78
2023-01-13T20:22:40.298Z,99190.59
2023-01-13T20:25:09.002Z,99197.97
2023-01-13T20:27:37.570Z,99205.00
2023-01-13T20:30:09.488Z,99208.09
2023-01-13T20:32:37.447Z,99208.31
2023-01-13T20:35:05.732Z,99211.19
2023-01-13T20:37:37.813Z,99214.06
2023-01-13T20:40:07.176Z,99212.41
2023-01-13T20:42:44.954Z,99214.88
2023-01-13T20:45:20.320Z,99223.06
2023-01-13T20:47:47.970Z,99242.19
2023-01-13T20:50:16.363Z,99248.22
2023-01-13T20:52:44.038Z,99239.63
2023-01-13T20:55:12.666Z,99240.81
2023-01-13T20:57:41.269Z,99242.06
2023-01-13T21:00:10.391Z,99244.91
2023-01-13T21:02:40.757Z,99235.94
2023-01-13T21:05:09.167Z,99242.88
2023-01-13T21:07:36.488Z,99251.66
2023-01-13T21:10:04.437Z,99260.06
2023-01-13T21:12:50.597Z,99257.97
2023-01-13T21:15:18.224Z,99258.22
2023-01-13T21:18:06.296Z,99260.88
2023-01-13T21:20:38.663Z,99262.50
2023-01-13T21:23:06.661Z,99263.53
2023-01-13T21:25:35.489Z,99275.22
2023-01-13T21:28:06.284Z,99275.22
2023-01-13T21:30:34.760Z,99271.94
2023-01-13T21:33:04.226Z,99269.88
2023-01-13T21:35:31.999Z,99275.63
2023-01-13T21:37:59.298Z,99275.63
2023-01-13T21:40:26.349Z,99276.66
2023-01-13T21:43:12.309Z,99277.69
2023-01-13T21:45:58.297Z,99274.41
2023-01-13T21:48:25.928Z,99280.16
2023-01-13T21:50:52.917Z,99267.91
2023-01-13T21:53:20.544Z,99279.78
2023-01-13T21:55:52.331Z,99283.47
2023-01-13T21:58:19.627Z,99275.69
2023-01-13T22:00:49.083Z,99269.09
2023-01-13T22:03:18.659Z,99273.84
2023-01-13T22:05:46.520Z,99276.91
2023-01-13T22:08:14.012Z,99281.44
2023-01-13T22:11:00.099Z,99275.94
2023-01-13T22:13:49.198Z,99271.25
2023-01-13T22:16:16.724Z,99280.22
2023-01-13T22:18:44.234Z,99284.13
2023-01-13T22:21:11.391Z,99284.53
2023-01-13T22:23:38.646Z,99284.56
2023-01-13T22:26:08.005Z,99283.97
2023-01-13T22:28:43.215Z,99295.03
2023-01-13T22:31:13.870Z,99300.56
2023-01-13T22:33:42.439Z,99292.75
2023-01-13T22:36:10.405Z,99290.94
2023-01-13T22:38:37.792Z,99296.28
2023-01-13T22:41:08.525Z,99297.06
2023-01-13T22:43:37.472Z,99299.94
2023-01-13T22:46:11.292Z,99297.28
2023-01-13T22:48:40.657Z,99305.28
2023-01-13T22:51:16.471Z,99296.69
2023-01-13T22:53:43.867Z,99296.69
2023-01-13T22:56:22.809Z,99301.19
2023-01-13T22:59:00.983Z,99307.72
2023-01-13T23:01:32.261Z,99301.19
2023-01-13T23:04:02.332Z,99310.19
2023-01-13T23:06:33.321Z,99308.75
2023-01-13T23:09:01.342Z,99314.28
2023-01-13T23:11:30.532Z,99300.38
2023-01-13T23:14:06.280Z,99295.47
2023-01-13T23:16:37.499Z,99298.31
2023-01-13T23:19:07.213Z,99312.84
2023-01-13T23:21:37.504Z,99315.50
2023-01-13T23:24:06.468Z,99311.22
2023-01-13T23:26:34.556Z,99309.97
2023-01-13T23:29:08.820Z,99311.03
2023-01-13T23:31:36.230Z,99304.06
2023-01-13T23:34:03.466Z,99309.00
2023-01-13T23:36:31.183Z,99310.22
2023-01-13T23:38:59.736Z,99307.97
2023-01-13T23:41:28.424Z,99318.16
2023-01-13T23:43:59.306Z,99314.72
2023-01-13T23:46:29.128Z,99311.41
2023-01-13T23:48:56.761Z,99313.47
2023-01-13T23:51:26.433Z,99318.38
2023-01-13T23:53:54.319Z,99329.22
2023-01-13T23:56:25.757Z,99329.41
2023-01-13T23:58:53.674Z,99328.00
